Terminal Aerodrome Forecast
Issued by NWS

Home | Current Version | Previous Version | Graphics & Text | Print | Product List | Glossary On
Versions: 1 2 3 4 5 6 7 8 9 10 11 12 13
000
FTUS43 KMPX 221723
TAFRNH
TAF
KRNH 221723Z 2218/2318 17010G17KT P6SM SCT035 BKN150
     FM230200 17009KT P6SM SCT150 WS020/20050KT
     FM230800 19011KT P6SM SCT200
     FM231500 20009KT P6SM SCT050 BKN250=

USA.gov is the U.S. government's official web portal to all federal, state and local government web resources and services.